| time (UTC) | temp F | wind direction | speed knots | gust knots | rain 1hr in | rain 24hr in | rain mn in | humidity % | barometer mb |
| 20260510192555 | 82 | 278 | 0.9 | 1.7 | 0.00 | 0.00 | 0.00 | 45 | 1017.1 |
| 20260510192051 | 83 | 260 | 0.9 | 1.7 | 0.00 | 0.00 | 0.00 | 45 | 1017.0 |
| 20260510191548 | 84 | 296 | 1.7 | 1.7 | 0.00 | 0.00 | 0.00 | 43 | 1016.8 |
| 20260510191045 | 84 | 244 | 0.9 | 1.7 | 0.00 | 0.00 | 0.00 | 43 | 1016.8 |
| 20260510190542 | 84 | 224 | 0.9 | 1.7 | 0.00 | 0.00 | 0.00 | 44 | 1016.9 |
| 20260510190040 | 82 | 219 | 0.0 | 0.0 | 0.00 | 0.00 | 0.00 | 43 | 1017.0 |
| 20260510185536 | 82 | 231 | 0.0 | 1.7 | 0.00 | 0.00 | 0.00 | 45 | 1016.9 |
| 20260510185034 | 81 | 232 | 0.0 | 1.7 | 0.00 | 0.00 | 0.00 | 46 | 1016.8 |
| 20260510184531 | 81 | 221 | 0.9 | 0.9 | 0.00 | 0.00 | 0.00 | 42 | 1017.0 |
| 20260510184026 | 82 | 259 | 0.9 | 2.6 | 0.00 | 0.00 | 0.00 | 44 | 1017.0 |
| 20260510183522 | 81 | 237 | 0.9 | 2.6 | 0.00 | 0.00 | 0.00 | 42 | 1016.8 |
| 20260510183017 | 81 | 169 | 0.9 | 4.3 | 0.00 | 0.00 | 0.00 | 46 | 1016.8 |
| 20260510182514 | 82 | 243 | 0.0 | 0.9 | 0.00 | 0.00 | 0.00 | 44 | 1016.9 |
| 20260510182009 | 81 | 252 | 0.0 | 0.9 | 0.00 | 0.00 | 0.00 | 43 | 1017.1 |
| 20260510181507 | 81 | 277 | 0.9 | 1.7 | 0.00 | 0.00 | 0.00 | 45 | 1016.8 |
| 20260510181003 | 81 | 309 | 1.7 | 4.3 | 0.00 | 0.00 | 0.00 | 49 | 1016.9 |
| 20260510180500 | 80 | 262 | 0.9 | 2.6 | 0.00 | 0.00 | 0.00 | 46 | 1016.8 |
| 20260510175957 | 81 | 209 | 2.6 | 7.0 | 0.00 | 0.00 | 0.00 | 50 | 1017.2 |
| 20260510175453 | 81 | 285 | 2.6 | 2.6 | 0.00 | 0.00 | 0.00 | 44 | 1017.2 |
| 20260510174948 | 81 | 273 | 2.6 | 4.3 | 0.00 | 0.00 | 0.00 | 43 | 1017.0 |
| 20260510174447 | 80 | 235 | 0.9 | 1.7 | 0.00 | 0.00 | 0.00 | 43 | 1017.0 |
| 20260510173944 | 80 | 220 | 0.9 | 4.3 | 0.00 | 0.00 | 0.00 | 46 | 1017.1 |
| 20260510173439 | 80 | 257 | 4.3 | 5.2 | 0.00 | 0.00 | 0.00 | 42 | 1017.2 |
| 20260510172936 | 80 | 283 | 2.6 | 5.2 | 0.00 | 0.00 | 0.00 | 47 | 1017.1 |
| 20260510172432 | 80 | 239 | 0.0 | 4.3 | 0.00 | 0.00 | 0.00 | 45 | 1017.3 |
| 20260510171928 | 80 | 253 | 1.7 | 2.6 | 0.00 | 0.00 | 0.00 | 46 | 1017.4 |
| 20260510171425 | 80 | 218 | 2.6 | 4.3 | 0.00 | 0.00 | 0.00 | 46 | 1017.2 |
| 20260510170922 | 80 | 223 | 1.7 | 2.6 | 0.00 | 0.00 | 0.00 | 49 | 1017.3 |
| 20260510170419 | 81 | 198 | 2.6 | 5.2 | 0.00 | 0.00 | 0.00 | 44 | 1017.2 |
| 20260510165914 | 80 | 220 | 0.0 | 2.6 | 0.00 | 0.00 | 0.00 | 46 | 1017.5 |
| 20260510165410 | 79 | 161 | 0.0 | 2.6 | 0.00 | 0.00 | 0.00 | 49 | 1017.2 |
| 20260510164908 | 79 | 253 | 5.2 | 7.0 | 0.00 | 0.00 | 0.00 | 47 | 1017.4 |
| 20260510164404 | 79 | 263 | 4.3 | 6.1 | 0.00 | 0.00 | 0.00 | 50 | 1017.3 |
| 20260510163859 | 79 | 214 | 2.6 | 4.3 | 0.00 | 0.00 | 0.00 | 51 | 1017.3 |
| 20260510163356 | 79 | 225 | 2.6 | 2.6 | 0.00 | 0.00 | 0.00 | 48 | 1017.4 |
| 20260510162855 | 78 | 234 | 2.6 | 2.6 | 0.00 | 0.00 | 0.00 | 52 | 1017.7 |
| 20260510162353 | 78 | 277 | 2.6 | 7.0 | 0.00 | 0.00 | 0.00 | 48 | 1017.6 |
| 20260510161848 | 79 | 210 | 2.6 | 4.3 | 0.00 | 0.00 | 0.00 | 49 | 1017.4 |
| 20260510161345 | 78 | 248 | 1.7 | 4.3 | 0.00 | 0.00 | 0.00 | 48 | 1017.6 |
| 20260510160842 | 78 | 218 | 4.3 | 6.1 | 0.00 | 0.00 | 0.00 | 46 | 1017.3 |
| 20260510160339 | 78 | 244 | 0.0 | 1.7 | 0.00 | 0.00 | 0.00 | 48 | 1017.5 |
| 20260510155832 | 77 | 263 | 0.9 | 1.7 | 0.00 | 0.00 | 0.00 | 50 | 1017.4 |
| 20260510155329 | 77 | 219 | 4.3 | 5.2 | 0.00 | 0.00 | 0.00 | 51 | 1017.3 |
| 20260510154820 | 77 | 193 | 2.6 | 5.2 | 0.00 | 0.00 | 0.00 | 53 | 1017.2 |
| 20260510154316 | 77 | 207 | 0.9 | 2.6 | 0.00 | 0.00 | 0.00 | 54 | 1017.0 |
| 20260510153815 | 77 | 229 | 2.6 | 2.6 | 0.00 | 0.00 | 0.00 | 54 | 1017.0 |
| 20260510153312 | 77 | 223 | 1.7 | 2.6 | 0.00 | 0.00 | 0.00 | 55 | 1017.1 |
| 20260510152809 | 76 | 190 | 1.7 | 1.7 | 0.00 | 0.00 | 0.00 | 58 | 1017.0 |
| 20260510152307 | 75 | 223 | 1.7 | 2.6 | 0.00 | 0.00 | 0.00 | 59 | 1017.0 |
| 20260510151802 | 74 | 211 | 2.6 | 2.6 | 0.00 | 0.00 | 0.00 | 63 | 1017.2 |
| 20260510151301 | 73 | 218 | 1.7 | 4.3 | 0.00 | 0.00 | 0.00 | 64 | 1017.1 |
| 20260510150756 | 73 | 202 | 1.7 | 4.3 | 0.00 | 0.00 | 0.00 | 66 | 1017.0 |
| 20260510150252 | 73 | 241 | 0.0 | 1.7 | 0.00 | 0.00 | 0.00 | 67 | 1016.9 |
| 20260510145748 | 72 | 219 | 1.7 | 1.7 | 0.00 | 0.00 | 0.00 | 66 | 1017.1 |
| 20260510145245 | 71 | 209 | 0.0 | 0.9 | 0.00 | 0.00 | 0.00 | 69 | 1017.0 |
| 20260510144741 | 71 | 205 | 0.0 | 0.9 | 0.00 | 0.00 | 0.00 | 69 | 1016.8 |
| 20260510144238 | 70 | 222 | 0.9 | 2.6 | 0.00 | 0.00 | 0.00 | 71 | 1017.0 |
| 20260510143737 | 69 | 236 | 0.9 | 1.7 | 0.00 | 0.00 | 0.00 | 70 | 1017.2 |
| 20260510143234 | 69 | 214 | 0.9 | 0.9 | 0.00 | 0.00 | 0.00 | 73 | 1016.9 |
| 20260510142731 | 68 | 238 | 0.0 | 0.9 | 0.00 | 0.00 | 0.00 | 71 | 1016.8 |
| 20260510142228 | 68 | 152 | 0.0 | 0.9 | 0.00 | 0.00 | 0.00 | 73 | 1016.9 |
| 20260510141725 | 68 | 197 | 0.0 | 0.0 | 0.00 | 0.00 | 0.00 | 75 | 1017.0 |
| 20260510141223 | 67 | 212 | 0.0 | 0.0 | 0.00 | 0.00 | 0.00 | 75 | 1017.0 |
| 20260510140719 | 67 | 213 | 0.0 | 0.9 | 0.00 | 0.00 | 0.00 | 75 | 1016.9 |
| 20260510140214 | 66 | 225 | 0.0 | 1.7 | 0.00 | 0.00 | 0.00 | 75 | 1016.9 |
| 20260510135709 | 66 | 233 | 0.0 | 0.0 | 0.00 | 0.00 | 0.00 | 79 | 1016.9 |
| 20260510135205 | 66 | 224 | 0.9 | 1.7 | 0.00 | 0.00 | 0.00 | 74 | 1016.9 |
| 20260510134702 | 66 | 229 | 0.0 | 0.0 | 0.00 | 0.00 | 0.00 | 80 | 1017.1 |
| 20260510134159 | 65 | 229 | 0.0 | 0.0 | 0.00 | 0.00 | 0.00 | 80 | 1017.1 |
| 20260510133655 | 64 | 229 | 0.0 | 0.0 | 0.00 | 0.00 | 0.00 | 79 | 1017.0 |
| 20260510133151 | 64 | 229 | 0.0 | 0.0 | 0.00 | 0.00 | 0.00 | 81 | 1017.1 |
| 20260510132647 | 63 | 229 | 0.0 | 0.0 | 0.00 | 0.00 | 0.00 | 81 | 1017.0 |
| 20260510132144 | 62 | 230 | 0.0 | 0.9 | 0.00 | 0.00 | 0.00 | 84 | 1017.1 |
| 20260510131642 | 61 | 230 | 0.0 | 0.0 | 0.00 | 0.00 | 0.00 | 87 | 1016.9 |
| 20260510131139 | 60 | 229 | 0.0 | 0.0 | 0.00 | 0.00 | 0.00 | 89 | 1016.9 |
| 20260510130636 | 60 | 229 | 0.0 | 0.0 | 0.00 | 0.00 | 0.00 | 94 | 1017.0 |
| 20260510130133 | 59 | 229 | 0.0 | 0.0 | 0.00 | 0.00 | 0.00 | 97 | 1016.8 |
| 20260510125629 | 58 | 229 | 0.0 | 0.0 | 0.00 | 0.00 | 0.00 | 99 | 1016.9 |
| 20260510125126 | 57 | 230 | 0.0 | 0.0 | 0.00 | 0.00 | 0.00 | 99 | 1016.6 |
| 20260510124623 | 57 | 230 | 0.0 | 0.9 | 0.00 | 0.00 | 0.00 | 99 | 1016.9 |
| 20260510124119 | 56 | 229 | 0.0 | 0.0 | 0.00 | 0.00 | 0.00 | 99 | 1016.8 |
| 20260510123615 | 55 | 229 | 0.0 | 0.0 | 0.00 | 0.00 | 0.00 | 99 | 1016.6 |
| 20260510123111 | 55 | 229 | 0.0 | 0.0 | 0.00 | 0.00 | 0.00 | 99 | 1016.8 |
| 20260510122607 | 55 | 229 | 0.0 | 0.0 | 0.00 | 0.00 | 0.00 | 99 | 1016.6 |
| 20260510122103 | 54 | 229 | 0.0 | 0.0 | 0.00 | 0.00 | 0.00 | 99 | 1016.5 |
| 20260510121600 | 54 | 229 | 0.0 | 0.0 | 0.00 | 0.00 | 0.00 | 99 | 1016.8 |
| 20260510121057 | 53 | 230 | 0.0 | 0.0 | 0.00 | 0.00 | 0.00 | 99 | 1016.6 |
| 20260510120555 | 53 | 230 | 0.0 | 0.0 | 0.00 | 0.00 | 0.00 | 99 | 1016.5 |
| 20260510120050 | 52 | 230 | 0.0 | 0.0 | 0.00 | 0.00 | 0.00 | 99 | 1016.5 |
| 20260510115547 | 51 | 230 | 0.0 | 0.0 | 0.00 | 0.00 | 0.00 | 99 | 1016.2 |
| 20260510115044 | 51 | 230 | 0.0 | 0.0 | 0.00 | 0.00 | 0.00 | 99 | 1016.3 |
| 20260510114540 | 51 | 229 | 0.0 | 0.0 | 0.00 | 0.00 | 0.00 | 99 | 1015.9 |
| 20260510114036 | 50 | 229 | 0.0 | 0.9 | 0.00 | 0.00 | 0.00 | 99 | 1016.3 |
| 20260510113531 | 50 | 230 | 0.0 | 0.9 | 0.00 | 0.00 | 0.00 | 99 | 1015.9 |
| 20260510113030 | 50 | 225 | 0.0 | 0.0 | 0.00 | 0.00 | 0.00 | 99 | 1015.6 |
| 20260510112526 | 50 | 226 | 0.0 | 0.0 | 0.00 | 0.00 | 0.00 | 99 | 1016.0 |
| 20260510112022 | 49 | 217 | 0.0 | 0.0 | 0.00 | 0.00 | 0.00 | 99 | 1015.9 |
| 20260510111519 | 49 | 218 | 0.0 | 0.0 | 0.00 | 0.00 | 0.00 | 99 | 1015.9 |
| 20260510111015 | 49 | 212 | 1.7 | 1.7 | 0.00 | 0.00 | 0.00 | 99 | 1015.7 |
| 20260510110511 | 50 | 215 | 0.9 | 0.9 | 0.00 | 0.00 | 0.00 | 99 | 1015.8 |
| 20260510110008 | 48 | 23 | 1.7 | 1.7 | 0.00 | 0.00 | 0.00 | 99 | 1015.6 |
| 20260510105502 | 48 | 213 | 0.9 | 0.9 | 0.00 | 0.00 | 0.00 | 99 | 1015.5 |
| 20260510104958 | 48 | 241 | 0.0 | 1.7 | 0.00 | 0.00 | 0.00 | 99 | 1015.3 |
| 20260510104455 | 48 | 233 | 0.0 | 0.0 | 0.00 | 0.00 | 0.00 | 99 | 1015.2 |
| 20260510103951 | 48 | 233 | 0.0 | 0.0 | 0.00 | 0.00 | 0.00 | 99 | 1015.0 |
| 20260510103449 | 48 | 233 | 0.0 | 0.0 | 0.00 | 0.00 | 0.00 | 99 | 1015.1 |
| 20260510102944 | 48 | 233 | 0.0 | 0.0 | 0.00 | 0.00 | 0.00 | 99 | 1014.9 |
| 20260510102440 | 48 | 233 | 0.0 | 0.0 | 0.00 | 0.00 | 0.00 | 98 | 1015.0 |
| 20260510101937 | 48 | 233 | 0.0 | 0.0 | 0.00 | 0.00 | 0.00 | 98 | 1015.0 |
| 20260510101435 | 48 | 233 | 0.0 | 0.0 | 0.00 | 0.00 | 0.00 | 98 | 1014.9 |
| 20260510100933 | 48 | 233 | 0.0 | 0.0 | 0.00 | 0.00 | 0.00 | 98 | 1014.9 |
| 20260510100429 | 48 | 233 | 0.0 | 0.0 | 0.00 | 0.00 | 0.00 | 98 | 1014.6 |
| 20260510095925 | 48 | 233 | 0.0 | 0.0 | 0.00 | 0.00 | 0.00 | 98 | 1014.6 |
| 20260510095421 | 49 | 233 | 0.0 | 0.0 | 0.00 | 0.00 | 0.00 | 98 | 1014.6 |
| 20260510094920 | 49 | 233 | 0.0 | 0.0 | 0.00 | 0.00 | 0.00 | 98 | 1014.8 |
| 20260510094415 | 49 | 233 | 0.0 | 0.0 | 0.00 | 0.00 | 0.00 | 98 | 1014.6 |
| 20260510093911 | 48 | 233 | 0.0 | 0.0 | 0.00 | 0.00 | 0.00 | 98 | 1014.6 |
| 20260510093407 | 48 | 233 | 0.0 | 0.0 | 0.00 | 0.00 | 0.00 | 98 | 1014.4 |
| 20260510092903 | 49 | 233 | 0.0 | 0.0 | 0.00 | 0.00 | 0.00 | 98 | 1014.4 |
| 20260510092401 | 48 | 233 | 0.0 | 0.0 | 0.00 | 0.00 | 0.00 | 98 | 1014.3 |
| 20260510091855 | 48 | 233 | 0.0 | 0.0 | 0.00 | 0.00 | 0.00 | 98 | 1014.5 |
| 20260510091353 | 49 | 233 | 0.0 | 0.0 | 0.00 | 0.00 | 0.00 | 98 | 1014.3 |
| 20260510090849 | 49 | 233 | 0.0 | 0.0 | 0.00 | 0.00 | 0.00 | 98 | 1014.2 |
| 20260510090346 | 49 | 233 | 0.0 | 0.0 | 0.00 | 0.00 | 0.00 | 98 | 1014.3 |
| 20260510085841 | 49 | 233 | 0.0 | 0.0 | 0.00 | 0.00 | 0.00 | 98 | 1014.3 |
| 20260510085336 | 49 | 233 | 0.0 | 0.0 | 0.00 | 0.00 | 0.00 | 98 | 1014.1 |
| 20260510084832 | 49 | 233 | 0.0 | 0.0 | 0.00 | 0.00 | 0.00 | 98 | 1014.2 |
| 20260510084329 | 49 | 233 | 0.0 | 0.0 | 0.00 | 0.00 | 0.00 | 98 | 1014.2 |
| 20260510083826 | 49 | 233 | 0.0 | 0.0 | 0.00 | 0.00 | 0.00 | 98 | 1014.0 |
| 20260510083323 | 49 | 233 | 0.0 | 0.0 | 0.00 | 0.00 | 0.00 | 98 | 1014.0 |
| 20260510082818 | 50 | 233 | 0.0 | 0.0 | 0.00 | 0.00 | 0.00 | 98 | 1014.0 |
| 20260510082316 | 50 | 233 | 0.0 | 0.0 | 0.00 | 0.00 | 0.00 | 98 | 1013.8 |
| 20260510081814 | 50 | 233 | 0.0 | 0.0 | 0.00 | 0.00 | 0.00 | 98 | 1013.8 |
| 20260510081311 | 50 | 233 | 0.0 | 0.0 | 0.00 | 0.00 | 0.00 | 98 | 1013.8 |
| 20260510080807 | 50 | 233 | 0.0 | 0.0 | 0.00 | 0.00 | 0.00 | 98 | 1013.8 |
| 20260510080301 | 50 | 233 | 0.0 | 0.0 | 0.00 | 0.00 | 0.00 | 98 | 1013.9 |
| 20260510075759 | 50 | 233 | 0.0 | 0.0 | 0.00 | 0.00 | 0.00 | 98 | 1014.0 |
| 20260510075256 | 50 | 233 | 0.0 | 0.0 | 0.00 | 0.00 | 0.00 | 98 | 1014.1 |
| 20260510074753 | 50 | 233 | 0.0 | 0.0 | 0.00 | 0.00 | 0.00 | 98 | 1013.9 |
| 20260510074250 | 50 | 233 | 0.0 | 0.9 | 0.00 | 0.00 | 0.00 | 98 | 1013.9 |
| 20260510073746 | 50 | 233 | 0.0 | 0.0 | 0.00 | 0.00 | 0.00 | 98 | 1014.0 |
| 20260510073242 | 50 | 233 | 0.0 | 0.0 | 0.00 | 0.00 | 0.00 | 98 | 1013.8 |
| 20260510072737 | 50 | 233 | 0.0 | 0.0 | 0.00 | 0.00 | 0.00 | 98 | 1013.7 |
| 20260510072234 | 50 | 233 | 0.0 | 0.0 | 0.00 | 0.00 | 0.00 | 98 | 1014.0 |
| 20260510071731 | 50 | 233 | 0.0 | 0.0 | 0.00 | 0.00 | 0.00 | 97 | 1013.8 |
| 20260510071228 | 50 | 233 | 0.0 | 0.0 | 0.00 | 0.00 | 0.00 | 97 | 1013.6 |
| 20260510070726 | 50 | 233 | 0.0 | 0.0 | 0.00 | 0.00 | 0.00 | 97 | 1013.6 |
| 20260510070223 | 50 | 233 | 0.0 | 0.0 | 0.00 | 0.00 | 0.00 | 97 | 1013.4 |
| 20260510065718 | 51 | 233 | 0.0 | 0.0 | 0.00 | 0.00 | 0.00 | 97 | 1013.4 |
| 20260510065214 | 51 | 233 | 0.0 | 0.0 | 0.00 | 0.00 | 0.00 | 97 | 1013.3 |
| 20260510064711 | 51 | 233 | 0.0 | 0.0 | 0.00 | 0.00 | 0.00 | 97 | 1013.7 |
| 20260510064209 | 51 | 233 | 0.0 | 0.0 | 0.00 | 0.00 | 0.00 | 97 | 1013.6 |
| 20260510063705 | 51 | 233 | 0.0 | 0.0 | 0.00 | 0.00 | 0.00 | 97 | 1013.4 |
| 20260510063201 | 51 | 233 | 0.0 | 0.0 | 0.00 | 0.00 | 0.00 | 97 | 1013.6 |
| 20260510062658 | 51 | 233 | 0.0 | 0.0 | 0.00 | 0.00 | 0.00 | 97 | 1013.2 |
| 20260510062154 | 51 | 233 | 0.0 | 0.0 | 0.00 | 0.00 | 0.00 | 97 | 1013.6 |
| 20260510061649 | 51 | 233 | 0.0 | 0.0 | 0.00 | 0.00 | 0.00 | 97 | 1013.6 |
| 20260510061147 | 51 | 233 | 0.0 | 0.0 | 0.00 | 0.00 | 0.00 | 97 | 1013.6 |
| 20260510060643 | 51 | 233 | 0.0 | 0.0 | 0.00 | 0.00 | 0.00 | 97 | 1013.7 |
| 20260510060140 | 51 | 233 | 0.0 | 0.0 | 0.00 | 0.00 | 0.00 | 96 | 1013.6 |
| 20260510055636 | 52 | 233 | 0.0 | 0.0 | 0.00 | 0.00 | 0.00 | 96 | 1013.4 |
| 20260510055134 | 51 | 233 | 0.0 | 0.0 | 0.00 | 0.00 | 0.00 | 96 | 1013.2 |
| 20260510054629 | 52 | 233 | 0.0 | 0.0 | 0.00 | 0.00 | 0.00 | 96 | 1013.7 |
| 20260510054125 | 52 | 233 | 0.0 | 0.0 | 0.00 | 0.00 | 0.00 | 96 | 1013.4 |
| 20260510053624 | 52 | 233 | 0.0 | 0.0 | 0.00 | 0.00 | 0.00 | 96 | 1013.3 |
| 20260510053121 | 52 | 233 | 0.0 | 0.0 | 0.00 | 0.00 | 0.00 | 96 | 1013.7 |
| 20260510052617 | 52 | 233 | 0.0 | 0.0 | 0.00 | 0.00 | 0.00 | 95 | 1013.4 |
| 20260510052114 | 52 | 233 | 0.0 | 0.0 | 0.00 | 0.00 | 0.00 | 95 | 1013.4 |
| 20260510051609 | 53 | 233 | 0.0 | 0.0 | 0.00 | 0.00 | 0.00 | 95 | 1013.4 |
| 20260510051106 | 53 | 233 | 0.0 | 0.0 | 0.00 | 0.00 | 0.00 | 95 | 1013.2 |
| 20260510050604 | 53 | 233 | 0.0 | 0.0 | 0.00 | 0.00 | 0.00 | 95 | 1013.1 |
| 20260510050100 | 53 | 233 | 0.0 | 0.0 | 0.00 | 0.00 | 0.00 | 95 | 1013.1 |
| 20260510045558 | 53 | 233 | 0.0 | 0.0 | 0.00 | 0.00 | 0.00 | 95 | 1013.2 |
| 20260510045053 | 53 | 233 | 0.0 | 0.0 | 0.00 | 0.00 | 0.00 | 94 | 1013.3 |
| 20260510044550 | 53 | 233 | 0.0 | 0.0 | 0.00 | 0.00 | 0.00 | 94 | 1013.2 |
| 20260510044048 | 54 | 233 | 0.0 | 0.0 | 0.00 | 0.00 | 0.00 | 94 | 1012.9 |
| 20260510043543 | 54 | 233 | 0.0 | 0.0 | 0.00 | 0.00 | 0.00 | 94 | 1013.1 |
| 20260510043039 | 54 | 233 | 0.0 | 0.0 | 0.00 | 0.00 | 0.00 | 94 | 1013.4 |
| 20260510042538 | 54 | 233 | 0.0 | 0.0 | 0.00 | 0.00 | 0.00 | 93 | 1013.1 |
| 20260510042034 | 54 | 233 | 0.0 | 0.0 | 0.00 | 0.00 | 0.00 | 93 | 1013.3 |
| 20260510041531 | 54 | 233 | 0.0 | 0.0 | 0.00 | 0.00 | 0.00 | 93 | 1013.1 |
| 20260510041029 | 54 | 234 | 0.0 | 0.0 | 0.00 | 0.00 | 0.00 | 93 | 1013.1 |
| 20260510040525 | 55 | 234 | 0.0 | 0.0 | 0.00 | 0.00 | 0.00 | 93 | 1013.1 |
| 20260510040021 | 55 | 234 | 0.0 | 0.9 | 0.00 | 0.00 | 0.00 | 93 | 1013.2 |
| 20260510035518 | 55 | 233 | 0.0 | 0.9 | 0.00 | 0.00 | 0.00 | 93 | 1013.3 |
| 20260510035017 | 55 | 232 | 0.0 | 0.0 | 0.00 | 0.00 | 0.00 | 93 | 1013.3 |
| 20260510034516 | 55 | 232 | 0.0 | 0.0 | 0.00 | 0.00 | 0.00 | 92 | 1013.2 |
| 20260510034012 | 55 | 232 | 0.0 | 0.0 | 0.00 | 0.00 | 0.00 | 93 | 1013.1 |
| 20260510033508 | 55 | 232 | 0.0 | 0.0 | 0.00 | 0.00 | 0.00 | 93 | 1013.4 |
| 20260510033006 | 55 | 232 | 0.0 | 0.0 | 0.00 | 0.00 | 0.00 | 93 | 1013.3 |
| 20260510032457 | 55 | 232 | 0.0 | 0.0 | 0.00 | 0.00 | 0.00 | 93 | 1013.3 |
| 20260510031957 | 56 | 232 | 0.0 | 0.0 | 0.00 | 0.00 | 0.00 | 92 | 1013.3 |
| 20260510031452 | 56 | 232 | 0.0 | 0.0 | 0.00 | 0.00 | 0.00 | 92 | 1013.2 |
| 20260510030949 | 56 | 232 | 0.0 | 0.0 | 0.00 | 0.00 | 0.00 | 92 | 1013.2 |
| 20260510030444 | 56 | 232 | 0.0 | 0.0 | 0.00 | 0.00 | 0.00 | 92 | 1013.3 |
| 20260510025942 | 56 | 232 | 0.0 | 0.0 | 0.00 | 0.00 | 0.00 | 92 | 1013.3 |
| 20260510025439 | 57 | 232 | 0.0 | 0.0 | 0.00 | 0.00 | 0.00 | 91 | 1013.2 |
| 20260510024936 | 57 | 232 | 0.0 | 0.0 | 0.00 | 0.00 | 0.00 | 91 | 1013.2 |
| 20260510024433 | 57 | 232 | 0.0 | 0.0 | 0.00 | 0.00 | 0.00 | 91 | 1013.1 |
| 20260510023928 | 57 | 232 | 0.0 | 0.0 | 0.00 | 0.00 | 0.00 | 90 | 1013.1 |
| 20260510023425 | 57 | 232 | 0.0 | 0.0 | 0.00 | 0.00 | 0.00 | 90 | 1013.0 |
| 20260510022922 | 57 | 232 | 0.0 | 0.0 | 0.00 | 0.00 | 0.00 | 90 | 1013.2 |
| 20260510022421 | 58 | 232 | 0.0 | 0.0 | 0.00 | 0.00 | 0.00 | 90 | 1012.8 |
| 20260510021920 | 58 | 232 | 0.0 | 0.0 | 0.00 | 0.00 | 0.00 | 88 | 1012.9 |
| 20260510021419 | 58 | 232 | 0.0 | 0.0 | 0.00 | 0.00 | 0.00 | 88 | 1013.0 |
| 20260510020915 | 59 | 232 | 0.0 | 0.0 | 0.00 | 0.00 | 0.00 | 87 | 1012.6 |
| 20260510020410 | 59 | 232 | 0.0 | 0.0 | 0.00 | 0.00 | 0.00 | 88 | 1012.7 |
| 20260510015906 | 59 | 232 | 0.0 | 0.0 | 0.00 | 0.00 | 0.00 | 88 | 1012.7 |
| 20260510015402 | 59 | 232 | 0.0 | 0.0 | 0.00 | 0.00 | 0.00 | 87 | 1012.7 |
| 20260510014857 | 60 | 232 | 0.0 | 0.0 | 0.00 | 0.00 | 0.00 | 86 | 1012.5 |
| 20260510014355 | 60 | 232 | 0.0 | 0.0 | 0.00 | 0.00 | 0.00 | 85 | 1012.4 |
| 20260510013851 | 60 | 232 | 0.0 | 0.0 | 0.00 | 0.00 | 0.00 | 85 | 1012.3 |
| 20260510013346 | 61 | 232 | 0.0 | 0.0 | 0.00 | 0.00 | 0.00 | 84 | 1012.3 |
| 20260510012841 | 61 | 232 | 0.0 | 0.0 | 0.00 | 0.00 | 0.00 | 82 | 1012.2 |
| 20260510012335 | 62 | 232 | 0.0 | 0.9 | 0.00 | 0.00 | 0.00 | 81 | 1012.2 |
| 20260510011831 | 62 | 232 | 0.0 | 0.9 | 0.00 | 0.00 | 0.00 | 81 | 1012.0 |
| 20260510011326 | 62 | 232 | 0.0 | 0.9 | 0.00 | 0.00 | 0.00 | 81 | 1011.8 |
| 20260510010823 | 63 | 232 | 0.0 | 0.0 | 0.00 | 0.00 | 0.00 | 80 | 1012.1 |
| 20260510010320 | 64 | 232 | 0.0 | 0.0 | 0.00 | 0.00 | 0.00 | 79 | 1011.8 |
| 20260510005817 | 64 | 232 | 0.0 | 0.9 | 0.00 | 0.00 | 0.00 | 78 | 1011.8 |
| 20260510005313 | 65 | 232 | 0.0 | 0.0 | 0.00 | 0.00 | 0.00 | 77 | 1011.9 |
| 20260510004811 | 66 | 232 | 0.0 | 0.0 | 0.00 | 0.00 | 0.00 | 76 | 1011.8 |
| 20260510004308 | 66 | 232 | 0.0 | 0.0 | 0.00 | 0.00 | 0.00 | 75 | 1011.7 |
| 20260510003806 | 67 | 232 | 0.0 | 0.0 | 0.00 | 0.00 | 0.00 | 74 | 1011.7 |
| 20260510003303 | 68 | 232 | 0.0 | 0.0 | 0.00 | 0.00 | 0.00 | 71 | 1011.5 |
| 20260510002801 | 68 | 232 | 0.0 | 0.0 | 0.00 | 0.00 | 0.00 | 69 | 1011.5 |
| 20260510002259 | 69 | 232 | 0.0 | 0.0 | 0.00 | 0.00 | 0.00 | 69 | 1011.6 |
| 20260510001755 | 70 | 232 | 0.0 | 0.0 | 0.00 | 0.00 | 0.00 | 67 | 1011.3 |
| 20260510001254 | 70 | 233 | 0.0 | 0.0 | 0.00 | 0.00 | 0.00 | 65 | 1011.4 |
| 20260510000749 | 71 | 233 | 0.0 | 0.9 | 0.00 | 0.00 | 0.00 | 68 | 1011.4 |
| 20260510000248 | 71 | 219 | 0.0 | 0.0 | 0.00 | 0.00 | 0.00 | 64 | 1011.2 |
| 20260509235744 | 71 | 219 | 0.0 | 0.9 | 0.00 | 0.00 | 0.00 | 61 | 1011.3 |
| 20260509235240 | 72 | 218 | 0.9 | 0.9 | 0.00 | 0.00 | 0.00 | 62 | 1011.2 |
| 20260509234736 | 73 | 219 | 0.0 | 0.9 | 0.00 | 0.00 | 0.00 | 62 | 1011.3 |
| 20260509234233 | 75 | 219 | 0.9 | 0.9 | 0.00 | 0.00 | 0.00 | 56 | 1011.1 |
| 20260509233731 | 77 | 220 | 0.9 | 0.9 | 0.00 | 0.00 | 0.00 | 52 | 1011.0 |
| 20260509233229 | 79 | 217 | 0.0 | 0.9 | 0.00 | 0.00 | 0.00 | 47 | 1011.1 |
| 20260509232724 | 79 | 217 | 0.0 | 1.7 | 0.00 | 0.00 | 0.00 | 41 | 1010.9 |
| 20260509232222 | 80 | 219 | 0.0 | 0.9 | 0.00 | 0.00 | 0.00 | 48 | 1011.1 |
| 20260509231718 | 79 | 219 | 0.0 | 0.9 | 0.00 | 0.00 | 0.00 | 48 | 1011.0 |
| 20260509231215 | 79 | 218 | 0.9 | 1.7 | 0.00 | 0.00 | 0.00 | 49 | 1011.1 |
| 20260509230713 | 80 | 223 | 0.9 | 0.9 | 0.00 | 0.00 | 0.00 | 50 | 1011.3 |
| 20260509230209 | 81 | 232 | 0.9 | 1.7 | 0.00 | 0.00 | 0.00 | 39 | 1011.4 |
| 20260509225705 | 83 | 247 | 0.0 | 0.0 | 0.00 | 0.00 | 0.00 | 32 | 1011.1 |
| 20260509225200 | 83 | 247 | 0.0 | 0.9 | 0.00 | 0.00 | 0.00 | 45 | 1011.3 |
| 20260509224651 | 84 | 248 | 0.0 | 0.9 | 0.00 | 0.00 | 0.00 | 29 | 1011.1 |
| 20260509224148 | 84 | 243 | 0.0 | 0.9 | 0.00 | 0.00 | 0.00 | 32 | 1011.2 |
| 20260509223644 | 83 | 242 | 0.9 | 0.9 | 0.00 | 0.00 | 0.00 | 30 | 1011.4 |
| 20260509223142 | 82 | 241 | 0.0 | 2.6 | 0.00 | 0.00 | 0.00 | 30 | 1011.0 |
| 20260509222639 | 82 | 205 | 0.0 | 1.7 | 0.00 | 0.00 | 0.00 | 32 | 1011.5 |
| 20260509222134 | 81 | 206 | 0.9 | 1.7 | 0.00 | 0.00 | 0.00 | 34 | 1011.1 |
| 20260509221631 | 81 | 216 | 1.7 | 2.6 | 0.00 | 0.00 | 0.00 | 39 | 1010.9 |
| 20260509221126 | 81 | 216 | 0.0 | 1.7 | 0.00 | 0.00 | 0.00 | 32 | 1011.3 |
| 20260509220622 | 83 | 211 | 2.6 | 2.6 | 0.00 | 0.00 | 0.00 | 33 | 1010.9 |
| 20260509220119 | 84 | 212 | 0.9 | 1.7 | 0.00 | 0.00 | 0.00 | 35 | 1011.0 |
| 20260509215614 | 83 | 239 | 0.0 | 0.9 | 0.00 | 0.00 | 0.00 | 35 | 1011.1 |
| 20260509215111 | 83 | 263 | 0.9 | 1.7 | 0.00 | 0.00 | 0.00 | 34 | 1010.9 |
| 20260509214608 | 84 | 242 | 0.9 | 1.7 | 0.00 | 0.00 | 0.00 | 34 | 1011.1 |
| 20260509214105 | 83 | 232 | 0.0 | 0.9 | 0.00 | 0.00 | 0.00 | 36 | 1010.9 |
| 20260509213601 | 81 | 207 | 0.0 | 0.0 | 0.00 | 0.00 | 0.00 | 36 | 1010.6 |
| 20260509213058 | 81 | 224 | 0.9 | 2.6 | 0.00 | 0.00 | 0.00 | 37 | 1010.9 |
| 20260509212555 | 81 | 210 | 2.6 | 2.6 | 0.00 | 0.00 | 0.00 | 35 | 1011.1 |
| 20260509212052 | 81 | 216 | 0.0 | 0.9 | 0.00 | 0.00 | 0.00 | 35 | 1010.7 |
| 20260509211548 | 82 | 226 | 4.3 | 7.0 | 0.00 | 0.00 | 0.00 | 36 | 1010.8 |
| 20260509211044 | 81 | 209 | 1.7 | 1.7 | 0.00 | 0.00 | 0.00 | 39 | 1010.8 |
| 20260509210541 | 81 | 222 | 0.0 | 2.6 | 0.00 | 0.00 | 0.00 | 38 | 1010.9 |
| 20260509210037 | 82 | 196 | 2.6 | 4.3 | 0.00 | 0.00 | 0.00 | 36 | 1010.8 |
| 20260509205532 | 82 | 222 | 1.7 | 1.7 | 0.00 | 0.00 | 0.00 | 37 | 1010.7 |
| 20260509205028 | 82 | 217 | 0.9 | 2.6 | 0.00 | 0.00 | 0.00 | 36 | 1010.9 |
| 20260509204524 | 83 | 336 | 2.6 | 2.6 | 0.00 | 0.00 | 0.00 | 33 | 1010.8 |
| 20260509204021 | 82 | 216 | 0.0 | 0.9 | 0.00 | 0.00 | 0.00 | 34 | 1010.7 |
| 20260509203516 | 81 | 230 | 0.0 | 0.9 | 0.00 | 0.00 | 0.00 | 39 | 1010.9 |
| 20260509203015 | 81 | 302 | 0.9 | 1.7 | 0.00 | 0.00 | 0.00 | 37 | 1010.8 |
| 20260509202509 | 80 | 244 | 0.0 | 1.7 | 0.00 | 0.00 | 0.00 | 37 | 1010.7 |
| 20260509202005 | 80 | 304 | 5.2 | 6.1 | 0.00 | 0.00 | 0.00 | 38 | 1010.9 |
| 20260509201500 | 81 | 255 | 2.6 | 7.8 | 0.00 | 0.00 | 0.00 | 38 | 1011.2 |
| 20260509200957 | 80 | 239 | 0.9 | 4.3 | 0.00 | 0.00 | 0.00 | 40 | 1011.1 |
| 20260509200452 | 80 | 205 | 1.7 | 2.6 | 0.00 | 0.00 | 0.00 | 37 | 1011.4 |
| 20260509195948 | 80 | 316 | 0.9 | 4.3 | 0.00 | 0.00 | 0.00 | 37 | 1011.1 |
| 20260509195439 | 80 | 19 | 1.7 | 4.3 | 0.00 | 0.00 | 0.00 | 39 | 1011.3 |
| 20260509194938 | 80 | 251 | 0.9 | 2.6 | 0.00 | 0.00 | 0.00 | 39 | 1011.4 |
| 20260509194434 | 80 | 219 | 1.7 | 2.6 | 0.00 | 0.00 | 0.00 | 39 | 1011.3 |
| 20260509193932 | 79 | 198 | 0.9 | 4.3 | 0.00 | 0.00 | 0.00 | 36 | 1011.2 |
| 20260509193431 | 79 | 301 | 1.7 | 2.6 | 0.00 | 0.00 | 0.00 | 43 | 1011.4 |
| 20260509192927 | 80 | 215 | 1.7 | 4.3 | 0.00 | 0.00 | 0.00 | 40 | 1011.3 |